Time;durP1;ratioP1;P1;durP2;ratioP2;P2;SDS_P1;SDS_P2;PMS_P1;PMS_P2;Temp;Humidity;BMP_temperature;BMP_pressure;BME280_temperature;BME280_humidity;BME280_pressure;Samples;Min_cycle;Max_cycle;Signal;HPM_P1;HPM_P2
2023/08/13 00:01:33;;;;;;;;;14.25;14.00;;;;;25.36;54.54;99386.69;5074176;28;45482;-62
2023/08/13 00:03:59;;;;;;;;;20.00;15.25;;;;;25.35;54.29;99377.75;5074459;28;45370;-62
2023/08/13 00:06:25;;;;;;;;;16.50;13.25;;;;;25.35;54.64;99374.19;5075578;28;45452;-62
2023/08/13 00:08:50;;;;;;;;;14.50;14.50;;;;;25.34;54.92;99378.75;5075514;28;45494;-62
2023/08/13 00:11:16;;;;;;;;;14.50;14.50;;;;;25.31;54.77;99372.78;5076156;28;45358;-62
2023/08/13 00:13:41;;;;;;;;;16.75;15.00;;;;;25.29;54.59;99377.50;5075678;28;45344;-62
2023/08/13 00:16:08;;;;;;;;;14.75;14.00;;;;;25.30;54.82;99385.44;5074263;28;47180;-62
2023/08/13 00:18:33;;;;;;;;;14.00;14.00;;;;;25.30;54.79;99390.00;5075417;28;45354;-62
2023/08/13 00:21:00;;;;;;;;;13.25;13.25;;;;;25.30;55.01;99379.22;5075193;27;45624;-62
2023/08/13 00:23:26;;;;;;;;;15.00;14.00;;;;;25.29;55.38;99386.47;5074842;27;45536;-62
2023/08/13 00:25:51;;;;;;;;;15.00;15.00;;;;;25.28;55.04;99376.66;5073306;28;46734;-61
2023/08/13 00:28:16;;;;;;;;;16.25;16.00;;;;;25.28;55.50;99371.25;5075359;28;45374;-62
2023/08/13 00:30:42;;;;;;;;;17.00;15.50;;;;;25.26;55.10;99370.56;5073422;28;45318;-61
2023/08/13 00:33:07;;;;;;;;;13.75;13.75;;;;;25.26;55.23;99375.09;5075395;28;45388;-62
2023/08/13 00:35:32;;;;;;;;;15.25;14.50;;;;;25.24;55.32;99369.00;5074956;28;46385;-62
2023/08/13 00:37:58;;;;;;;;;22.00;17.50;;;;;25.21;55.28;99372.84;5074640;28;45387;-62
2023/08/13 00:40:23;;;;;;;;;19.75;17.00;;;;;25.19;55.72;99379.38;5075321;28;45365;-62
2023/08/13 00:42:49;;;;;;;;;17.50;17.25;;;;;25.17;55.98;99378.66;5073377;28;46002;-62
2023/08/13 00:45:14;;;;;;;;;15.75;15.75;;;;;25.16;56.03;99379.66;5073341;28;45512;-61
2023/08/13 00:47:41;;;;;;;;;16.50;15.00;;;;;25.11;56.42;99385.53;5074738;27;45384;-62
2023/08/13 00:50:07;;;;;;;;;14.25;14.25;;;;;25.03;56.72;99385.41;5090585;27;45654;-62
2023/08/13 00:52:33;;;;;;;;;16.00;15.00;;;;;24.92;56.61;99383.72;5072563;28;45566;-62
2023/08/13 00:54:59;;;;;;;;;15.50;14.25;;;;;24.85;55.97;99389.81;5074371;28;46237;-62
2023/08/13 00:57:24;;;;;;;;;14.75;14.75;;;;;24.78;56.82;99392.25;5074909;28;45333;-63
2023/08/13 00:59:51;;;;;;;;;13.25;13.25;;;;;24.72;56.08;99398.22;5074879;28;45294;-62
2023/08/13 01:02:16;;;;;;;;;17.75;15.75;;;;;24.66;56.97;99391.53;5074529;27;45527;-62
2023/08/13 01:04:42;;;;;;;;;17.25;15.00;;;;;24.61;56.75;99393.00;5072883;28;47355;-62
2023/08/13 01:07:18;;;;;;;;;13.00;13.00;;;;;24.56;56.91;99397.97;5073309;28;45514;-62
2023/08/13 01:10:09;;;;;;;;;12.50;12.25;;;;;24.53;56.32;99393.69;5074554;27;45500;-62
2023/08/13 01:12:52;;;;;;;;;15.00;14.50;;;;;24.54;56.40;99391.84;5073632;27;45380;-62
2023/08/13 01:15:24;;;;;;;;;18.50;15.25;;;;;24.54;56.70;99390.00;5074198;27;46321;-62
2023/08/13 01:17:52;;;;;;;;;10.00;10.00;;;;;24.55;57.08;99385.47;5074801;28;45470;-62
2023/08/13 01:20:18;;;;;;;;;13.75;13.50;;;;;24.52;56.92;99383.91;5073249;28;45420;-62
2023/08/13 01:22:48;;;;;;;;;9.25;9.25;;;;;24.52;56.75;99385.75;5074575;27;45441;-61
2023/08/13 01:25:14;;;;;;;;;13.75;12.75;;;;;24.51;57.38;99381.34;5074526;28;45456;-61
2023/08/13 01:27:50;;;;;;;;;12.60;12.60;;;;;24.49;56.86;99389.59;5074037;27;45474;-61
2023/08/13 01:30:26;;;;;;;;;15.25;14.50;;;;;24.48;57.91;99387.88;5074560;28;45713;-61
2023/08/13 01:33:00;;;;;;;;;15.50;15.00;;;;;24.45;57.84;99388.19;5072998;28;45471;-61
2023/08/13 01:35:26;;;;;;;;;14.75;14.75;;;;;24.39;57.62;99394.13;5073780;27;46442;-61
2023/08/13 01:37:54;;;;;;;;;12.75;11.75;;;;;24.32;57.58;99384.91;5074100;28;45420;-61
2023/08/13 01:40:20;;;;;;;;;12.25;11.50;;;;;24.26;57.83;99383.66;5056482;28;45475;-62
2023/08/13 01:42:45;;;;;;;;;13.75;13.75;;;;;24.25;57.76;99384.63;5074065;28;45367;-62
2023/08/13 01:45:12;;;;;;;;;15.25;14.75;;;;;24.24;57.97;99388.31;5106896;27;46319;-61
2023/08/13 01:47:37;;;;;;;;;15.60;14.60;;;;;24.26;57.84;99385.50;5106477;27;45505;-61
2023/08/13 01:50:03;;;;;;;;;12.00;12.00;;;;;24.26;57.84;99385.50;5074311;28;45427;-61
2023/08/13 01:52:28;;;;;;;;;13.25;13.00;;;;;24.24;58.39;99385.63;5073799;28;45492;-61
2023/08/13 01:54:55;;;;;;;;;13.50;12.50;;;;;24.22;57.91;99387.59;5089691;27;47290;-61
2023/08/13 01:57:21;;;;;;;;;15.80;14.20;;;;;24.19;58.50;99389.69;5074186;28;45429;-61
2023/08/13 01:59:46;;;;;;;;;12.00;10.50;;;;;24.18;58.68;99390.69;5072667;28;45507;-61
2023/08/13 02:02:13;;;;;;;;;13.25;12.00;;;;;24.19;58.80;99401.31;5073735;28;45494;-62
2023/08/13 02:04:39;;;;;;;;;15.00;14.00;;;;;24.19;58.69;99393.25;5074225;28;45568;-61
2023/08/13 02:07:04;;;;;;;;;19.25;16.25;;;;;24.20;58.49;99397.66;5073088;28;45394;-61
2023/08/13 02:09:29;;;;;;;;;16.00;14.25;;;;;24.19;58.88;99393.25;5073981;28;45798;-61
2023/08/13 02:11:55;;;;;;;;;16.25;15.25;;;;;24.21;59.25;99387.72;5073984;27;45333;-62
2023/08/13 02:14:20;;;;;;;;;19.00;17.25;;;;;24.20;59.08;99397.66;5072498;28;48318;-61
2023/08/13 02:16:46;;;;;;;;;15.00;14.75;;;;;24.20;58.90;99394.09;5073931;28;45676;-61
2023/08/13 02:19:11;;;;;;;;;17.00;15.25;;;;;24.19;59.54;99393.25;5073731;27;45689;-61
2023/08/13 02:21:36;;;;;;;;;15.50;13.75;;;;;24.19;59.50;99392.41;5073065;28;45635;-61
2023/08/13 02:24:02;;;;;;;;;17.50;16.75;;;;;24.20;59.38;99394.09;5074654;27;45421;-61
2023/08/13 02:26:28;;;;;;;;;14.00;14.00;;;;;24.20;59.76;99394.09;5076722;28;45463;-61
2023/08/13 02:28:53;;;;;;;;;15.00;15.00;;;;;24.17;59.76;99387.16;5109880;27;45550;-61
2023/08/13 02:31:18;;;;;;;;;14.00;13.25;;;;;24.17;59.61;99389.84;5109812;27;45606;-61
2023/08/13 02:33:44;;;;;;;;;14.00;14.00;;;;;24.16;59.63;99382.75;5077156;28;45401;-61
2023/08/13 02:36:09;;;;;;;;;15.25;15.00;;;;;24.16;59.60;99387.28;5077000;28;45532;-61
2023/08/13 02:38:36;;;;;;;;;15.00;14.00;;;;;24.16;59.93;99388.13;5076816;28;45439;-62
2023/08/13 02:41:01;;;;;;;;;13.00;13.00;;;;;24.16;60.06;99389.97;5076355;27;45475;-61
2023/08/13 02:43:31;;;;;;;;;15.25;14.00;;;;;24.15;59.71;99382.88;5076421;28;45594;-61
2023/08/13 02:45:56;;;;;;;;;14.40;14.40;;;;;24.14;59.56;99382.03;5076857;28;45452;-61
2023/08/13 02:48:22;;;;;;;;;13.50;13.00;;;;;24.13;59.26;99382.19;5076855;28;45336;-61
2023/08/13 02:50:47;;;;;;;;;17.00;15.50;;;;;24.13;59.06;99382.19;5076184;28;45602;-62
2023/08/13 02:53:13;;;;;;;;;17.00;15.25;;;;;24.12;58.97;99383.19;5074922;28;45738;-62
2023/08/13 02:55:38;;;;;;;;;14.00;13.50;;;;;24.10;59.32;99377.94;5076281;28;45454;-62
2023/08/13 02:58:04;;;;;;;;;15.50;13.50;;;;;24.10;58.83;99375.25;5076528;28;45372;-61
2023/08/13 03:00:29;;;;;;;;;14.50;13.75;;;;;24.11;58.96;99381.50;5076317;28;45555;-62
2023/08/13 03:02:54;;;;;;;;;13.75;13.75;;;;;24.09;58.89;99376.25;5076264;28;45535;-61
2023/08/13 03:05:20;;;;;;;;;13.50;13.50;;;;;24.10;58.90;99374.41;5074864;28;45463;-61
2023/08/13 03:07:45;;;;;;;;;18.75;17.50;;;;;24.10;58.77;99374.41;5076097;28;45443;-61
2023/08/13 03:10:12;;;;;;;;;15.00;15.00;;;;;24.09;58.97;99373.53;5075883;28;45524;-61
2023/08/13 03:12:37;;;;;;;;;16.75;16.00;;;;;24.07;58.38;99372.81;5075838;28;45406;-61
2023/08/13 03:15:03;;;;;;;;;18.25;15.50;;;;;24.06;58.58;99372.97;5074677;28;45613;-61
2023/08/13 03:17:29;;;;;;;;;13.50;13.00;;;;;24.05;58.48;99373.97;5076836;28;45380;-61
2023/08/13 03:19:55;;;;;;;;;16.75;14.75;;;;;24.01;59.09;99365.31;5076648;28;45543;-61
2023/08/13 03:22:21;;;;;;;;;14.75;14.00;;;;;23.98;59.53;99368.28;5076140;27;46376;-61
2023/08/13 03:24:46;;;;;;;;;14.75;12.75;;;;;23.93;59.70;99371.41;5076413;27;45336;-62
2023/08/13 03:27:12;;;;;;;;;15.25;14.25;;;;;23.87;60.33;99360.31;5074895;28;45299;-61
2023/08/13 03:29:37;;;;;;;;;13.75;13.00;;;;;23.76;60.66;99366.69;5076382;28;45317;-61
2023/08/13 03:32:03;;;;;;;;;16.00;15.00;;;;;23.66;60.70;99366.66;5076160;27;46549;-61
2023/08/13 03:34:28;;;;;;;;;15.75;15.75;;;;;23.58;60.83;99358.44;5076352;27;45320;-62
2023/08/13 03:36:54;;;;;;;;;18.50;15.25;;;;;23.51;61.33;99353.69;5074815;27;45860;-61
2023/08/13 03:39:19;;;;;;;;;12.25;12.25;;;;;23.46;60.98;99356.78;5075534;28;45565;-61
2023/08/13 03:41:44;;;;;;;;;6.00;5.00;;;;;23.45;61.55;99359.66;5076080;28;46320;-62
2023/08/13 03:44:10;;;;;;;;;16.00;15.50;;;;;23.45;61.48;99363.19;5075737;28;45431;-61
2023/08/13 03:46:35;;;;;;;;;13.75;13.25;;;;;23.44;61.65;99355.25;5074003;28;45449;-61
2023/08/13 03:49:00;;;;;;;;;16.00;15.25;;;;;23.44;61.60;99355.25;5075050;28;45585;-61
2023/08/13 03:51:26;;;;;;;;;15.50;15.50;;;;;23.41;61.96;99359.06;5074898;28;45412;-61
2023/08/13 03:53:51;;;;;;;;;14.00;13.75;;;;;23.38;62.05;99351.25;5075446;28;45431;-61
2023/08/13 03:56:17;;;;;;;;;15.50;14.75;;;;;23.36;61.83;99350.53;5075319;27;45430;-61
2023/08/13 03:58:42;;;;;;;;;14.25;14.25;;;;;23.37;62.04;99357.63;5074299;28;45339;-61
2023/08/13 04:01:08;;;;;;;;;12.75;12.75;;;;;23.35;62.17;99364.13;5074683;28;48191;-61
2023/08/13 04:03:34;;;;;;;;;16.25;15.50;;;;;23.29;62.21;99361.00;5074762;28;45464;-61
2023/08/13 04:05:59;;;;;;;;;17.00;17.00;;;;;23.28;62.57;99362.00;5074851;27;45533;-61
2023/08/13 04:08:25;;;;;;;;;15.75;15.75;;;;;23.29;62.26;99369.06;5073747;28;45377;-61
2023/08/13 04:10:52;;;;;;;;;16.50;16.50;;;;;23.30;62.43;99362.69;5075644;27;46324;-61
2023/08/13 04:13:18;;;;;;;;;16.75;16.00;;;;;23.31;62.70;99368.94;5075771;28;45376;-61
2023/08/13 04:15:44;;;;;;;;;15.25;14.50;;;;;23.30;62.97;99369.91;5075726;27;45510;-61
2023/08/13 04:18:09;;;;;;;;;11.50;11.00;;;;;23.28;63.25;99367.38;5075550;28;45588;-61
2023/08/13 04:20:36;;;;;;;;;14.00;14.00;;;;;23.32;63.20;99371.50;5075416;28;45521;-62
2023/08/13 04:23:02;;;;;;;;;15.50;15.50;;;;;23.36;63.18;99374.75;5075013;28;45458;-61
2023/08/13 04:25:27;;;;;;;;;12.25;10.75;;;;;23.35;63.25;99373.06;5075470;28;45409;-61
2023/08/13 04:27:52;;;;;;;;;17.75;15.50;;;;;23.35;63.09;99375.75;5075122;28;45524;-61
2023/08/13 04:30:18;;;;;;;;;15.00;15.00;;;;;23.32;63.41;99367.94;5073148;28;46948;-62
2023/08/13 04:32:53;;;;;;;;;16.00;15.00;;;;;23.27;62.85;99373.75;5074993;28;45343;-61
2023/08/13 04:35:19;;;;;;;;;16.00;16.00;;;;;23.24;63.50;99381.25;5074938;27;45359;-61
2023/08/13 04:37:46;;;;;;;;;14.75;14.75;;;;;23.21;63.03;99371.59;5074700;27;45314;-61
2023/08/13 04:40:11;;;;;;;;;16.75;14.50;;;;;23.22;63.15;99367.91;5074460;27;46369;-62
2023/08/13 04:42:36;;;;;;;;;14.25;13.50;;;;;23.21;63.01;99374.28;5074985;28;45336;-62
2023/08/13 04:45:02;;;;;;;;;15.50;15.50;;;;;23.20;63.87;99375.28;5075063;28;46102;-61
2023/08/13 04:47:28;;;;;;;;;17.50;16.00;;;;;23.18;63.71;99373.69;5072658;28;45350;-61
2023/08/13 04:49:53;;;;;;;;;15.00;15.00;;;;;23.18;63.92;99374.56;5074930;28;45734;-61
2023/08/13 04:52:18;;;;;;;;;14.25;13.50;;;;;23.18;64.25;99377.25;5074085;28;45448;-61
2023/08/13 04:54:46;;;;;;;;;17.50;16.50;;;;;23.21;64.04;99378.81;5074671;28;45370;-61
2023/08/13 04:57:11;;;;;;;;;16.00;16.00;;;;;23.20;63.88;99377.97;5074823;27;45649;-62
2023/08/13 04:59:37;;;;;;;;;16.50;16.50;;;;;23.20;63.66;99383.34;5074673;27;45586;-62
2023/08/13 05:02:02;;;;;;;;;24.25;20.75;;;;;23.21;63.68;99378.81;5075110;28;45554;-61
2023/08/13 05:04:27;;;;;;;;;15.25;15.25;;;;;23.20;63.82;99382.50;5073800;28;45439;-61
2023/08/13 05:06:53;;;;;;;;;16.75;14.75;;;;;23.19;63.86;99384.31;5074010;28;45293;-62
2023/08/13 05:09:18;;;;;;;;;15.25;15.25;;;;;23.20;63.90;99382.50;5074438;27;46337;-62
2023/08/13 05:11:44;;;;;;;;;14.00;12.75;;;;;23.21;63.29;99384.19;5074721;27;45360;-62
2023/08/13 05:14:11;;;;;;;;;17.50;16.50;;;;;23.17;63.36;99383.59;5074750;28;45383;-61
2023/08/13 05:16:37;;;;;;;;;14.75;14.25;;;;;23.09;63.51;99382.59;5074640;28;45612;-61
2023/08/13 05:19:03;;;;;;;;;16.00;15.25;;;;;23.04;63.66;99391.03;5074296;28;46085;-62
2023/08/13 05:21:28;;;;;;;;;32.25;27.75;;;;;23.00;63.08;99388.75;5072611;28;46131;-62
2023/08/13 05:23:54;;;;;;;;;18.50;16.25;;;;;22.93;64.14;99393.81;5073065;27;45444;-61
2023/08/13 05:26:19;;;;;;;;;16.75;16.00;;;;;22.88;64.95;99399.59;5072835;28;45524;-61
2023/08/13 05:28:44;;;;;;;;;16.50;16.50;;;;;22.83;64.29;99395.59;5072590;28;45401;-62
2023/08/13 05:31:10;;;;;;;;;18.75;15.75;;;;;22.77;65.03;99390.75;5073828;28;45431;-61
2023/08/13 05:33:35;;;;;;;;;20.50;18.25;;;;;22.74;65.24;99391.84;5074044;27;45434;-63
2023/08/13 05:36:02;;;;;;;;;17.00;15.50;;;;;22.73;65.08;99397.34;5073808;28;45391;-61
2023/08/13 05:38:28;;;;;;;;;15.00;15.00;;;;;22.72;64.75;99407.25;5074193;28;46675;-61
2023/08/13 05:40:53;;;;;;;;;16.50;16.50;;;;;22.72;64.24;99403.69;5073974;27;45368;-61
2023/08/13 05:43:18;;;;;;;;;17.00;16.25;;;;;22.69;64.85;99404.81;5074370;28;45360;-61
2023/08/13 05:45:44;;;;;;;;;16.00;16.00;;;;;22.64;64.78;99399.81;5074139;28;45369;-62
2023/08/13 05:48:09;;;;;;;;;16.00;16.00;;;;;22.63;64.26;99406.19;5071867;28;47081;-61
2023/08/13 05:50:35;;;;;;;;;15.00;15.00;;;;;22.62;64.74;99406.34;5074060;28;45361;-62
2023/08/13 05:53:00;;;;;;;;;17.25;14.75;;;;;22.62;65.39;99409.03;5073684;27;45457;-61
2023/08/13 05:55:26;;;;;;;;;14.75;14.00;;;;;22.61;64.76;99418.06;5073724;28;45589;-61
2023/08/13 05:57:52;;;;;;;;;15.50;14.50;;;;;22.58;64.63;99410.25;5073312;28;46164;-61
2023/08/13 06:00:17;;;;;;;;;15.25;13.25;;;;;22.55;65.13;99413.19;5071918;28;45368;-61
2023/08/13 06:02:43;;;;;;;;;17.25;16.50;;;;;22.55;64.51;99416.75;5072208;28;45384;-61
2023/08/13 06:05:08;;;;;;;;;17.75;16.00;;;;;22.56;64.57;99413.06;5072142;28;45439;-61
2023/08/13 06:07:34;;;;;;;;;15.00;14.00;;;;;22.58;64.44;99412.94;5072456;27;46722;-62
2023/08/13 06:10:01;;;;;;;;;14.50;14.25;;;;;22.62;64.31;99425.16;5073540;27;45657;-61
2023/08/13 06:12:26;;;;;;;;;13.00;13.00;;;;;22.64;63.75;99417.78;5073446;28;45542;-61
2023/08/13 06:14:52;;;;;;;;;17.25;15.50;;;;;22.69;64.57;99431.69;5073193;28;45477;-61
2023/08/13 06:17:17;;;;;;;;;17.25;17.00;;;;;22.69;64.13;99431.69;5071537;28;47043;-61
2023/08/13 06:19:42;;;;;;;;;17.75;15.50;;;;;22.68;64.89;99426.44;5073231;28;45658;-61
2023/08/13 06:22:09;;;;;;;;;19.00;18.00;;;;;22.67;65.12;99422.91;5072627;28;45443;-61
2023/08/13 06:24:36;;;;;;;;;16.00;15.25;;;;;22.62;65.54;99417.91;5073252;28;45329;-61
2023/08/13 06:27:01;;;;;;;;;19.00;18.75;;;;;22.58;65.27;99423.69;5072780;27;46283;-61
2023/08/13 06:29:26;;;;;;;;;15.00;14.25;;;;;22.57;65.11;99425.53;5106139;27;45474;-62
2023/08/13 06:31:52;;;;;;;;;16.00;15.00;;;;;22.59;65.43;99425.41;5073314;28;45350;-61
2023/08/13 06:34:17;;;;;;;;;14.50;12.50;;;;;22.62;65.54;99425.16;5073192;28;45519;-61
2023/08/13 06:36:43;;;;;;;;;16.25;16.25;;;;;22.65;64.95;99422.19;5072631;28;45345;-61
2023/08/13 06:39:08;;;;;;;;;14.75;14.00;;;;;22.68;65.56;99423.75;5072918;27;45506;-61
2023/08/13 06:41:34;;;;;;;;;18.00;17.75;;;;;22.72;65.47;99425.22;5071717;28;45700;-61
2023/08/13 06:43:59;;;;;;;;;19.25;17.75;;;;;22.79;65.33;99424.56;5072983;28;45523;-62
2023/08/13 06:46:24;;;;;;;;;17.50;17.50;;;;;22.82;65.23;99426.16;5072738;27;46391;-61
2023/08/13 06:48:50;;;;;;;;;17.25;17.25;;;;;22.89;64.69;99416.59;5072700;27;45436;-61
2023/08/13 06:51:15;;;;;;;;;19.50;19.00;;;;;22.97;64.33;99419.44;5071507;28;45472;-61
2023/08/13 06:53:41;;;;;;;;;15.00;14.00;;;;;23.06;64.49;99415.13;5073113;28;45567;-61
2023/08/13 06:56:06;;;;;;;;;20.00;17.25;;;;;23.17;63.87;99420.41;5072524;28;46578;-62
2023/08/13 06:58:32;;;;;;;;;29.25;23.75;;;;;23.27;63.86;99418.63;5088448;27;45452;-62
2023/08/13 07:00:57;;;;;;;;;19.25;17.50;;;;;23.38;63.55;99423.91;5073295;28;45376;-61
2023/08/13 07:03:23;;;;;;;;;19.50;18.50;;;;;23.47;64.13;99412.31;5073046;28;45519;-62
2023/08/13 07:05:48;;;;;;;;;22.00;21.00;;;;;23.59;63.81;99423.91;5073187;28;46443;-62
2023/08/13 07:08:14;;;;;;;;;19.50;18.00;;;;;23.70;63.88;99420.25;5073015;28;45300;-61
2023/08/13 07:10:40;;;;;;;;;22.75;20.50;;;;;23.82;63.60;99421.81;5074213;28;45466;-61
2023/08/13 07:13:06;;;;;;;;;19.25;19.25;;;;;23.94;63.17;99418.03;5092368;27;45552;-62
2023/08/13 07:15:31;;;;;;;;;16.50;16.50;;;;;24.04;62.32;99413.50;5076273;28;45526;-62
2023/08/13 07:17:57;;;;;;;;;17.25;17.25;;;;;24.17;61.61;99421.31;5074785;28;45322;-62
2023/08/13 07:20:24;;;;;;;;;15.75;12.00;;;;;24.26;61.50;99418.69;5076486;28;45355;-62
2023/08/13 07:22:49;;;;;;;;;18.50;17.25;;;;;24.35;61.10;99416.97;5075723;28;45568;-62
2023/08/13 07:25:15;;;;;;;;;19.50;18.75;;;;;24.45;61.00;99414.28;5076337;28;45410;-62
2023/08/13 07:27:42;;;;;;;;;16.50;14.25;;;;;24.56;60.58;99416.81;5075989;28;45345;-62
2023/08/13 07:30:10;;;;;;;;;19.25;17.50;;;;;24.67;60.04;99413.97;5074545;27;45404;-62
2023/08/13 07:32:37;;;;;;;;;20.00;17.25;;;;;24.75;59.79;99416.81;5074842;28;45401;-62
2023/08/13 07:35:03;;;;;;;;;15.50;15.25;;;;;24.83;59.27;99421.47;5091531;27;46725;-62
2023/08/13 07:37:29;;;;;;;;;20.25;19.50;;;;;24.91;59.52;99417.06;5075456;27;45576;-62
2023/08/13 07:39:56;;;;;;;;;22.50;19.00;;;;;25.04;59.27;99414.94;5076014;27;45414;-62
2023/08/13 07:42:21;;;;;;;;;17.00;17.00;;;;;25.16;58.49;99417.44;5076036;27;45446;-62
2023/08/13 07:44:47;;;;;;;;;20.25;20.00;;;;;25.25;58.42;99409.34;5075928;28;46445;-62
2023/08/13 07:47:13;;;;;;;;;15.25;15.25;;;;;25.35;57.86;99409.28;5075687;28;45572;-62
2023/08/13 07:49:40;;;;;;;;;19.00;18.00;;;;;25.46;57.56;99405.56;5075934;28;45346;-62
2023/08/13 07:52:05;;;;;;;;;15.25;15.00;;;;;25.58;57.64;99404.38;5075460;28;45455;-62
2023/08/13 07:54:31;;;;;;;;;20.00;18.50;;;;;25.69;56.99;99409.59;5075649;28;45722;-62
2023/08/13 07:56:57;;;;;;;;;17.00;17.00;;;;;25.81;56.90;99402.97;5074287;28;45350;-62
2023/08/13 07:59:22;;;;;;;;;17.50;17.50;;;;;25.92;56.31;99393.81;5075349;28;45371;-62
2023/08/13 08:01:49;;;;;;;;;21.25;19.75;;;;;26.03;56.09;99404.41;5075356;28;45460;-62
2023/08/13 08:04:14;;;;;;;;;19.75;18.25;;;;;26.12;55.90;99398.09;5075305;28;45585;-62
2023/08/13 08:06:39;;;;;;;;;19.25;18.00;;;;;26.19;55.42;99407.28;5073524;28;45711;-62
2023/08/13 08:09:05;;;;;;;;;18.00;17.50;;;;;26.26;55.39;99404.81;5075542;28;45685;-61
2023/08/13 08:11:31;;;;;;;;;16.25;16.25;;;;;26.34;54.72;99404.91;5075153;28;45598;-62
2023/08/13 08:13:56;;;;;;;;;15.25;15.00;;;;;26.41;54.20;99409.56;5075008;28;45636;-62
2023/08/13 08:16:22;;;;;;;;;19.75;18.25;;;;;26.46;54.13;99403.69;5074575;28;45495;-62
2023/08/13 08:18:47;;;;;;;;;18.25;18.25;;;;;26.52;53.98;99410.31;5108123;27;45478;-62
2023/08/13 08:21:13;;;;;;;;;19.00;16.50;;;;;26.57;53.88;99405.28;5074215;28;45610;-62
2023/08/13 08:23:38;;;;;;;;;18.00;17.25;;;;;26.62;53.86;99400.28;5074838;28;45818;-62
2023/08/13 08:26:04;;;;;;;;;18.75;17.50;;;;;26.62;53.41;99393.00;5075451;28;45393;-62
2023/08/13 08:28:30;;;;;;;;;17.00;17.00;;;;;26.63;53.53;99392.00;5073413;28;45386;-62
2023/08/13 08:30:55;;;;;;;;;19.75;18.25;;;;;26.65;53.64;99389.13;5074775;28;45380;-62
2023/08/13 08:33:22;;;;;;;;;19.75;18.75;;;;;26.68;53.21;99394.22;5073210;28;48275;-62
2023/08/13 08:35:47;;;;;;;;;18.75;18.75;;;;;26.71;52.86;99392.06;5074585;28;45376;-62
2023/08/13 08:38:13;;;;;;;;;22.50;20.75;;;;;26.74;53.20;99386.34;5074424;28;45491;-62
2023/08/13 08:40:42;;;;;;;;;18.25;17.00;;;;;26.80;53.40;99387.56;5074830;28;45565;-61
2023/08/13 08:43:09;;;;;;;;;19.50;18.25;;;;;26.86;52.98;99384.22;5074710;28;46718;-62
2023/08/13 08:45:36;;;;;;;;;18.50;16.25;;;;;26.90;52.99;99379.34;5107412;27;46016;-62
2023/08/13 08:48:06;;;;;;;;;22.00;20.75;;;;;26.93;52.43;99377.16;5074892;28;45453;-62
2023/08/13 08:50:34;;;;;;;;;18.75;17.50;;;;;26.95;52.48;99379.75;5073175;28;45370;-62
2023/08/13 08:53:00;;;;;;;;;19.75;19.75;;;;;26.97;52.19;99373.16;5074478;28;45719;-62
2023/08/13 08:55:26;;;;;;;;;24.50;22.25;;;;;27.01;52.54;99369.13;5074824;28;45579;-62
2023/08/13 08:57:54;;;;;;;;;18.25;16.75;;;;;27.03;52.58;99367.09;5075008;28;45312;-62
2023/08/13 09:00:19;;;;;;;;;20.75;20.00;;;;;27.03;52.42;99368.97;5074741;28;45439;-62
2023/08/13 09:02:46;;;;;;;;;17.75;17.75;;;;;27.05;52.75;99361.53;5074546;28;45449;-63
2023/08/13 09:05:12;;;;;;;;;20.75;19.50;;;;;27.07;52.60;99360.38;5073238;28;45487;-61
2023/08/13 09:07:42;;;;;;;;;16.00;16.00;;;;;27.06;52.10;99355.97;5073574;28;45453;-61
2023/08/13 09:10:08;;;;;;;;;18.75;17.25;;;;;27.05;52.20;99351.56;5090100;27;45360;-61
2023/08/13 09:12:36;;;;;;;;;18.00;18.00;;;;;27.06;52.08;99347.00;5074264;28;47565;-62
2023/08/13 09:15:12;;;;;;;;;16.20;16.00;;;;;27.11;51.56;99344.66;5074316;28;45415;-62
2023/08/13 09:17:38;;;;;;;;;13.75;13.25;;;;;27.16;50.73;99342.28;5074316;28;45419;-63
2023/08/13 09:20:18;;;;;;;;;15.25;15.25;;;;;27.21;50.60;99342.66;5074373;28;45423;-63
2023/08/13 09:22:48;;;;;;;;;21.50;18.25;;;;;27.26;50.21;99344.91;5073482;28;45436;-62
2023/08/13 09:25:14;;;;;;;;;24.00;21.75;;;;;27.31;50.73;99338.00;5073794;28;45456;-62
2023/08/13 09:27:41;;;;;;;;;15.75;14.25;;;;;27.41;50.30;99333.28;5073705;27;45359;-62
2023/08/13 09:30:12;;;;;;;;;17.50;16.50;;;;;27.53;50.05;99330.25;5072291;28;45583;-62
2023/08/13 09:32:38;;;;;;;;;16.75;16.25;;;;;27.65;49.03;99329.00;5073989;28;46775;-62
2023/08/13 09:35:04;;;;;;;;;18.50;17.75;;;;;27.79;49.98;99325.66;5106320;27;45700;-62
2023/08/13 09:37:30;;;;;;;;;16.50;14.75;;;;;27.95;48.82;99322.97;5106392;27;45460;-62
2023/08/13 09:39:56;;;;;;;;;16.00;16.00;;;;;28.14;48.68;99322.66;5074017;28;45384;-62
2023/08/13 09:42:25;;;;;;;;;15.00;14.00;;;;;28.33;47.82;99323.34;5073564;28;47232;-62
2023/08/13 09:44:56;;;;;;;;;15.25;14.75;;;;;28.43;47.54;99321.31;5073850;28;45434;-61
2023/08/13 09:47:25;;;;;;;;;15.75;14.50;;;;;28.56;47.68;99318.09;5073646;28;45454;-61
2023/08/13 09:49:54;;;;;;;;;19.50;17.00;;;;;28.70;46.93;99329.06;5074101;27;45626;-62
2023/08/13 09:52:25;;;;;;;;;11.75;11.25;;;;;28.86;47.37;99317.38;5073557;28;45506;-61
2023/08/13 09:55:01;;;;;;;;;16.20;16.20;;;;;28.99;46.48;99304.09;5072237;28;45417;-62
2023/08/13 09:57:27;;;;;;;;;14.50;13.75;;;;;29.10;46.17;99308.31;5073765;28;45404;-63
2023/08/13 09:59:54;;;;;;;;;15.00;15.00;;;;;29.16;45.57;99300.31;5073814;28;45490;-62
2023/08/13 10:02:21;;;;;;;;;15.75;13.75;;;;;29.22;45.00;99298.75;5073587;28;46271;-63
2023/08/13 10:04:47;;;;;;;;;16.20;14.80;;;;;29.27;44.44;99298.25;5072405;27;45763;-63
2023/08/13 10:07:12;;;;;;;;;14.50;14.00;;;;;29.30;44.53;99297.91;5073266;28;45358;-62
2023/08/13 10:09:40;;;;;;;;;15.00;15.00;;;;;29.33;44.86;99289.38;5073649;27;45340;-63
2023/08/13 10:12:07;;;;;;;;;14.50;14.50;;;;;29.36;44.22;99278.16;5072084;28;48332;-63
2023/08/13 10:14:32;;;;;;;;;9.00;9.00;;;;;29.35;44.34;99280.03;5073595;28;45421;-63
2023/08/13 10:17:04;;;;;;;;;13.50;12.75;;;;;29.35;44.41;99281.91;5073768;28;45505;-63
2023/08/13 10:19:30;;;;;;;;;15.50;15.50;;;;;29.35;44.53;99268.31;5073788;28;45524;-62
2023/08/13 10:21:56;;;;;;;;;13.75;13.75;;;;;29.38;44.00;99270.69;5073106;28;46249;-62
2023/08/13 10:24:24;;;;;;;;;18.00;16.00;;;;;29.38;43.95;99259.81;5089229;27;45435;-62
2023/08/13 10:26:50;;;;;;;;;19.25;15.50;;;;;29.39;44.27;99264.25;5073771;28;45459;-63
2023/08/13 10:29:19;;;;;;;;;15.25;15.25;;;;;29.43;43.46;99252.00;5073564;28;45356;-63
2023/08/13 10:31:55;;;;;;;;;17.50;15.75;;;;;29.49;43.93;99252.13;5073735;28;45472;-63
2023/08/13 10:34:50;;;;;;;;;16.80;16.00;;;;;29.54;43.51;99250.75;5073705;28;45502;-62
2023/08/13 10:37:23;;;;;;;;;17.50;16.25;;;;;29.57;44.08;99245.81;5064099;28;45526;-62
2023/08/13 10:39:54;;;;;;;;;16.00;15.25;;;;;29.62;43.93;99245.28;5069952;28;45609;-62
2023/08/13 10:42:26;;;;;;;;;16.50;16.00;;;;;29.68;44.01;99236.38;5072168;28;47119;-63
2023/08/13 10:44:51;;;;;;;;;16.25;16.25;;;;;29.71;44.00;99236.88;5073737;28;45497;-63
2023/08/13 10:47:18;;;;;;;;;15.50;15.50;;;;;29.78;43.16;99235.13;5108880;27;45613;-62
2023/08/13 10:49:44;;;;;;;;;16.00;15.00;;;;;29.85;43.58;99229.81;5076390;28;45343;-62
2023/08/13 10:52:13;;;;;;;;;17.50;15.75;;;;;29.95;42.98;99224.97;5076099;27;48139;-62
2023/08/13 10:54:39;;;;;;;;;17.00;15.50;;;;;30.02;42.93;99228.66;5076980;28;45388;-63
2023/08/13 10:57:05;;;;;;;;;17.75;17.75;;;;;30.07;42.54;99226.25;5075614;28;45403;-62
2023/08/13 10:59:33;;;;;;;;;15.75;15.75;;;;;30.16;42.59;99221.59;5076501;28;45400;-62
2023/08/13 11:02:19;;;;;;;;;14.50;14.50;;;;;30.26;42.75;99221.34;5076691;28;45558;-62
2023/08/13 11:04:46;;;;;;;;;13.75;13.75;;;;;30.30;42.34;99207.19;5075260;28;45540;-62
2023/08/13 11:07:13;;;;;;;;;16.25;14.75;;;;;30.31;41.81;99206.16;5076410;28;45426;-62
2023/08/13 11:09:40;;;;;;;;;13.25;12.25;;;;;30.34;40.89;99208.47;5076669;28;45333;-62
2023/08/13 11:12:08;;;;;;;;;15.75;13.75;;;;;30.36;41.29;99200.13;5075402;28;46176;-62
2023/08/13 11:14:35;;;;;;;;;16.75;14.75;;;;;30.36;40.44;99200.13;5076468;27;45363;-63